Time;durP1;ratioP1;P1;durP2;ratioP2;P2;SDS_P1;SDS_P2;PMS_P1;PMS_P2;Temp;Humidity;BMP_temperature;BMP_pressure;BME280_temperature;BME280_humidity;BME280_pressure;Samples;Min_cycle;Max_cycle;Signal;HPM_P1;HPM_P2
2023/08/14 00:06:34;;;;;;;14.38;8.45;;;;;;;15.38;100.00;101366.78;5092793;28;20039;-79
2023/08/14 00:12:21;;;;;;;11.35;8.27;;;;;;;15.41;100.00;101371.69;5096022;28;20403;-80
2023/08/14 00:18:08;;;;;;;10.95;7.80;;;;;;;15.28;100.00;101369.22;5092345;28;20100;-79
2023/08/14 00:23:55;;;;;;;10.85;7.70;;;;;;;15.24;100.00;101367.22;5092189;28;20101;-80
2023/08/14 00:29:42;;;;;;;14.10;8.07;;;;;;;15.18;100.00;101363.59;5091779;28;20269;-80
2023/08/14 00:35:29;;;;;;;9.48;7.53;;;;;;;15.05;100.00;101353.03;5097124;28;20051;-80
2023/08/14 00:41:16;;;;;;;12.20;7.93;;;;;;;14.94;100.00;101361.88;5091841;28;20282;-72
2023/08/14 00:47:04;;;;;;;10.23;8.30;;;;;;;14.92;100.00;101367.50;5092158;28;20385;-72
2023/08/14 00:52:55;;;;;;;12.35;8.23;;;;;;;14.88;100.00;101355.56;5091892;28;20047;-71
2023/08/14 00:58:42;;;;;;;10.02;7.93;;;;;;;14.85;100.00;101356.84;5098927;28;20047;-71
2023/08/14 01:04:29;;;;;;;12.27;8.32;;;;;;;14.83;100.00;101352.72;5098775;28;20594;-71
2023/08/14 01:10:16;;;;;;;10.70;7.63;;;;;;;14.79;100.00;101346.16;5098395;28;20533;-72
2023/08/14 01:16:08;;;;;;;11.27;8.25;;;;;;;14.78;100.00;101345.34;5098446;28;20071;-72
2023/08/14 01:22:15;;;;;;;9.68;7.68;;;;;;;14.70;100.00;101340.25;5097943;28;20047;-71
2023/08/14 01:28:03;;;;;;;10.35;7.70;;;;;;;14.65;100.00;101333.94;5098601;28;20185;-72
2023/08/14 01:33:49;;;;;;;14.48;8.98;;;;;;;14.62;100.00;101326.31;5098354;28;20519;-72
2023/08/14 01:39:46;;;;;;;14.15;8.30;;;;;;;14.60;100.00;101323.03;5098367;28;20429;-72
2023/08/14 01:45:35;;;;;;;10.48;7.32;;;;;;;14.43;100.00;101323.66;5098208;28;20201;-72
2023/08/14 01:51:23;;;;;;;11.80;7.30;;;;;;;14.38;100.00;101301.16;5098227;28;20151;-71
2023/08/14 01:53:48;;;;;;;14.10;7.60;;;;;;;14.36;100.00;101298.69;5097053;28;20032;-72
2023/08/14 01:59:43;;;;;;;10.07;7.95;;;;;;;14.27;100.00;101303.56;5097992;28;20086;-72
2023/08/14 02:05:11;;;;;;;12.45;7.88;;;;;;;14.44;100.00;101294.88;5097898;28;20413;-71
2023/08/14 02:10:57;;;;;;;11.15;7.85;;;;;;;14.47;100.00;101281.00;5094721;28;20042;-71
2023/08/14 02:16:44;;;;;;;9.07;7.78;;;;;;;14.40;100.00;101281.03;5094150;28;20446;-73
2023/08/14 02:22:31;;;;;;;13.45;9.13;;;;;;;14.33;100.00;101274.94;5094503;28;20799;-73
2023/08/14 02:24:56;;;;;;;11.25;9.35;;;;;;;14.32;100.00;101278.66;5093316;28;20064;-72
2023/08/14 02:30:43;;;;;;;9.55;7.18;;;;;;;14.23;100.00;101280.03;5094223;28;20042;-72
2023/08/14 02:33:09;;;;;;;11.77;8.55;;;;;;;14.25;100.00;101283.31;5075184;28;20040;-74
2023/08/14 02:38:56;;;;;;;9.10;7.68;;;;;;;14.21;100.00;101263.31;5094125;28;20127;-75
2023/08/14 02:44:44;;;;;;;16.17;9.68;;;;;;;14.15;100.00;101259.63;5093758;28;20285;-73
2023/08/14 02:50:31;;;;;;;15.68;9.30;;;;;;;13.98;100.00;101258.63;5093948;28;20067;-73
2023/08/14 02:56:18;;;;;;;10.88;8.27;;;;;;;13.87;100.00;101273.63;5093869;28;20062;-73
2023/08/14 02:58:43;;;;;;;13.43;9.23;;;;;;;13.83;100.00;101264.38;5093367;28;20440;-73
2023/08/14 03:04:31;;;;;;;12.18;8.65;;;;;;;13.80;100.00;101256.78;5093450;28;20622;-75
2023/08/14 03:10:17;;;;;;;10.60;7.50;;;;;;;13.85;100.00;101262.28;5093438;28;20281;-74
2023/08/14 03:16:04;;;;;;;14.93;8.85;;;;;;;13.85;100.00;101262.28;5093500;28;20047;-74
2023/08/14 03:21:52;;;;;;;16.35;9.63;;;;;;;13.83;100.00;101263.56;5093225;28;20268;-73
2023/08/14 03:27:38;;;;;;;10.93;8.40;;;;;;;13.74;100.00;101267.63;5092164;28;20070;-74
2023/08/14 03:33:26;;;;;;;14.63;8.85;;;;;;;13.75;100.00;101256.63;5092432;28;20460;-74
2023/08/14 03:39:12;;;;;;;12.43;9.27;;;;;;;13.76;100.00;101260.16;5092363;28;20269;-74
2023/08/14 03:44:59;;;;;;;13.77;7.65;;;;;;;13.57;100.00;101262.81;5092482;28;20341;-73
2023/08/14 03:50:46;;;;;;;13.45;8.57;;;;;;;13.54;100.00;101263.28;5092252;28;20059;-73
2023/08/14 03:53:13;;;;;;;13.70;9.10;;;;;;;13.56;100.00;101263.03;5091362;28;20480;-74
2023/08/14 03:55:39;;;;;;;14.00;9.30;;;;;;;13.59;100.00;101273.38;5074202;28;20028;-73
2023/08/14 04:01:26;;;;;;;15.88;9.85;;;;;;;13.66;100.00;101265.22;5093030;28;20043;-72
2023/08/14 04:07:12;;;;;;;13.85;10.07;;;;;;;13.67;100.00;101267.69;5092502;28;20277;-72
2023/08/14 04:13:00;;;;;;;11.95;8.40;;;;;;;13.66;100.00;101259.84;5092339;28;20169;-73
2023/08/14 04:18:47;;;;;;;15.40;9.15;;;;;;;13.55;100.00;101254.16;5092700;28;20101;-73
2023/08/14 04:24:34;;;;;;;17.65;10.18;;;;;;;13.64;100.00;101249.34;5092585;28;20139;-73
2023/08/14 04:30:21;;;;;;;16.02;9.00;;;;;;;13.70;100.00;101240.38;5091457;28;20362;-74
2023/08/14 04:36:09;;;;;;;12.63;9.27;;;;;;;13.84;100.00;101239.16;5092260;28;20078;-73
2023/08/14 04:41:55;;;;;;;14.95;9.90;;;;;;;14.09;100.00;101238.22;5092512;28;20050;-73
2023/08/14 04:47:42;;;;;;;19.70;10.02;;;;;;;14.41;100.00;101225.34;5092068;28;20277;-73
2023/08/14 04:53:29;;;;;;;16.10;8.48;;;;;;;14.67;100.00;101221.47;5092023;28;20050;-74
2023/08/14 04:59:16;;;;;;;15.18;9.40;;;;;;;14.88;100.00;101215.53;5091998;28;20095;-74
2023/08/14 05:05:03;;;;;;;13.07;8.77;;;;;;;15.63;100.00;101215.63;5092005;28;20105;-73
2023/08/14 05:10:51;;;;;;;13.95;8.07;;;;;;;16.48;100.00;101206.72;5091795;28;20050;-74
2023/08/14 05:16:37;;;;;;;8.02;6.88;;;;;;;17.44;100.00;101201.97;5091575;28;20404;-73
2023/08/14 05:22:24;;;;;;;8.07;7.28;;;;;;;18.35;100.00;101212.19;5091678;28;20285;-73
2023/08/14 05:24:50;;;;;;;9.48;7.25;;;;;;;18.62;100.00;101209.47;5072569;28;20044;-74
2023/08/14 05:30:41;;;;;;;9.32;6.13;;;;;;;18.49;100.00;101214.22;5091007;28;20084;-74
2023/08/14 05:33:06;;;;;;;8.65;6.82;;;;;;;18.39;100.00;101216.03;5090070;28;20080;-73
2023/08/14 05:38:53;;;;;;;11.57;7.40;;;;;;;18.20;100.00;101226.38;5091296;28;20327;-73
2023/08/14 05:44:40;;;;;;;11.27;8.38;;;;;;;18.03;100.00;101217.56;5094832;28;20507;-73
2023/08/14 05:50:27;;;;;;;9.27;7.45;;;;;;;17.88;100.00;101226.31;5094349;28;20634;-73
2023/08/14 05:52:54;;;;;;;10.60;7.18;;;;;;;17.77;100.00;101221.88;5093942;28;20024;-73
2023/08/14 05:58:41;;;;;;;10.98;7.72;;;;;;;17.51;100.00;101245.03;5094558;28;20101;-74
2023/08/14 06:04:28;;;;;;;11.52;8.90;;;;;;;17.27;100.00;101245.25;5094200;28;20043;-73
2023/08/14 06:06:54;;;;;;;15.27;9.32;;;;;;;17.27;100.00;101250.66;5093922;28;20028;-72
2023/08/14 06:12:41;;;;;;;13.63;9.20;;;;;;;17.15;100.00;101255.34;5094482;28;20370;-74
2023/08/14 06:18:28;;;;;;;9.90;8.70;;;;;;;17.22;100.00;101255.16;5094025;28;20101;-73
2023/08/14 06:24:16;;;;;;;11.05;9.65;;;;;;;17.49;100.00;101250.69;5094196;28;20070;-72
2023/08/14 06:30:03;;;;;;;14.82;9.23;;;;;;;17.89;100.00;101241.47;5094456;28;20055;-72
2023/08/14 06:35:50;;;;;;;12.38;9.25;;;;;;;21.09;100.00;101245.13;5094237;28;20514;-72
2023/08/14 06:41:37;;;;;;;12.40;8.45;;;;;;;23.59;100.00;101240.63;5093783;28;20042;-72
2023/08/14 06:47:24;;;;;;;13.05;7.78;;;;;;;23.76;100.00;101243.69;5093712;28;20059;-74
2023/08/14 06:53:11;;;;;;;12.05;7.30;;;;;;;22.99;100.00;101247.50;5093088;28;20048;-74
2023/08/14 06:58:58;;;;;;;10.68;7.82;;;;;;;23.26;100.00;101239.59;5093944;28;20050;-75
2023/08/14 07:04:45;;;;;;;12.18;7.45;;;;;;;25.12;95.67;101230.16;5093598;28;20096;-75
2023/08/14 07:10:32;;;;;;;10.27;6.88;;;;;;;27.02;89.51;101240.22;5092947;28;20139;-74
2023/08/14 07:16:19;;;;;;;10.23;7.03;;;;;;;25.37;90.88;101232.41;5093541;28;20085;-74
2023/08/14 07:25:28;;;;;;;15.48;6.70;;;;;;;22.24;100.00;101231.41;5093656;28;20042;-75
2023/08/14 07:31:14;;;;;;;10.18;6.68;;;;;;;21.94;100.00;101225.03;5093081;28;20301;-74
2023/08/14 07:37:01;;;;;;;12.52;7.10;;;;;;;23.54;100.00;101246.09;5093520;28;20074;-74
2023/08/14 07:42:49;;;;;;;11.88;6.80;;;;;;;24.04;100.00;101265.75;5093088;28;20097;-74
2023/08/14 07:48:36;;;;;;;9.48;5.90;;;;;;;26.14;89.45;101262.59;5093127;28;20055;-75
2023/08/14 07:54:23;;;;;;;11.43;5.15;;;;;;;29.43;70.37;101255.31;5092671;28;20466;-75
2023/08/14 08:00:11;;;;;;;10.48;5.32;;;;;;;31.51;59.76;101262.66;5092847;28;20047;-76
2023/08/14 08:06:00;;;;;;;8.70;4.50;;;;;;;31.41;57.48;101266.72;5092100;28;20483;-75
2023/08/14 08:11:47;;;;;;;9.10;4.25;;;;;;;32.09;54.10;101260.56;5092388;28;20039;-76
2023/08/14 08:17:34;;;;;;;8.13;4.32;;;;;;;32.62;54.41;101256.59;5092602;28;20058;-74
2023/08/14 08:23:21;;;;;;;10.68;3.90;;;;;;;34.25;48.15;101248.75;5092369;28;20526;-76
2023/08/14 08:29:08;;;;;;;6.10;3.45;;;;;;;34.22;44.07;101245.91;5091918;28;20043;-75
2023/08/14 08:34:56;;;;;;;9.17;3.63;;;;;;;34.83;41.49;101234.84;5092274;28;20089;-75
2023/08/14 08:40:48;;;;;;;7.20;3.05;;;;;;;34.69;39.59;101235.38;5092151;28;20055;-76
2023/08/14 08:46:41;;;;;;;8.52;2.80;;;;;;;35.41;39.37;101229.13;5092064;28;20561;-76
2023/08/14 08:52:28;;;;;;;5.85;2.45;;;;;;;35.93;37.84;101230.28;5091416;28;20039;-76
2023/08/14 08:58:18;;;;;;;7.63;2.40;;;;;;;34.48;35.88;101226.63;5091539;28;20097;-75
2023/08/14 09:04:05;;;;;;;5.45;2.28;;;;;;;35.16;37.75;101223.13;5091545;28;20047;-76
2023/08/14 09:09:53;;;;;;;5.10;2.30;;;;;;;35.06;36.88;101220.97;5092003;28;20043;-74
2023/08/14 09:15:44;;;;;;;6.63;2.35;;;;;;;35.57;35.89;101232.56;5092458;28;20039;-73
2023/08/14 09:21:31;;;;;;;5.70;2.30;;;;;;;35.99;33.21;101217.63;5095394;28;20043;-77
2023/08/14 09:27:18;;;;;;;5.87;2.57;;;;;;;35.81;34.89;101228.50;5094142;28;20047;-78
2023/08/14 09:36:34;;;;;;;5.35;2.08;;;;;;;36.71;33.93;101241.56;5094545;28;20098;-75
2023/08/14 09:42:24;;;;;;;6.22;2.20;;;;;;;33.46;36.08;101240.63;5094676;28;20035;-75
2023/08/14 09:48:11;;;;;;;5.70;2.17;;;;;;;31.99;41.04;101240.53;5094419;28;20080;-75
2023/08/14 09:53:58;;;;;;;5.97;2.40;;;;;;;29.15;48.63;101219.94;5094731;28;20610;-73
2023/08/14 09:59:45;;;;;;;6.43;2.60;;;;;;;27.60;55.10;101201.53;5094131;28;20131;-77
2023/08/14 10:05:33;;;;;;;6.75;2.63;;;;;;;27.43;57.92;101198.72;5094873;28;20046;-75
2023/08/14 10:11:24;;;;;;;6.55;2.45;;;;;;;29.18;53.07;101190.91;5094382;28;20062;-75
2023/08/14 10:17:21;;;;;;;5.57;2.30;;;;;;;29.71;49.71;101184.00;5093807;28;20169;-73
2023/08/14 10:23:09;;;;;;;6.18;2.60;;;;;;;30.76;45.37;101178.06;5094124;28;20081;-74
2023/08/14 10:28:57;;;;;;;6.22;2.40;;;;;;;30.64;44.27;101153.19;5093195;28;20050;-75
2023/08/14 10:34:46;;;;;;;6.57;2.40;;;;;;;28.84;50.39;101142.25;5093732;28;20070;-75
2023/08/14 10:40:33;;;;;;;6.20;2.45;;;;;;;27.83;52.57;101139.03;5093810;28;20058;-74
2023/08/14 10:46:20;;;;;;;6.55;2.20;;;;;;;26.37;57.77;101131.03;5093718;28;20054;-73
2023/08/14 10:52:07;;;;;;;7.93;2.63;;;;;;;26.43;59.42;101129.78;5093612;28;20379;-74
2023/08/14 10:57:55;;;;;;;5.28;2.60;;;;;;;26.46;58.21;101135.44;5094070;28;20131;-75
2023/08/14 11:04:04;;;;;;;4.57;2.10;;;;;;;27.56;54.87;101142.84;5093288;28;20039;-76
2023/08/14 11:09:51;;;;;;;9.07;3.13;;;;;;;29.37;48.85;101143.66;5093570;28;20461;-76
2023/08/14 11:15:39;;;;;;;5.25;2.22;;;;;;;28.08;53.91;101154.72;5093500;28;20085;-73
2023/08/14 11:21:26;;;;;;;6.95;2.50;;;;;;;29.25;51.01;101141.63;5093203;28;20088;-76
2023/08/14 11:27:14;;;;;;;9.07;2.63;;;;;;;28.69;47.92;101136.19;5091994;28;20046;-76
2023/08/14 11:33:05;;;;;;;6.43;2.63;;;;;;;26.97;55.36;101131.34;5092373;28;20134;-75
2023/08/14 11:38:52;;;;;;;5.95;2.58;;;;;;;26.55;59.76;101122.59;5092465;28;20062;-77
2023/08/14 11:44:39;;;;;;;4.75;2.20;;;;;;;27.25;57.26;101126.47;5092030;28;20054;-73
2023/08/14 11:50:26;;;;;;;9.40;2.65;;;;;;;27.27;56.95;101128.88;5092428;28;20471;-75
2023/08/14 11:56:13;;;;;;;5.60;2.53;;;;;;;27.90;54.93;101114.59;5092887;28;20040;-79
2023/08/14 12:02:00;;;;;;;5.25;2.47;;;;;;;29.32;49.46;101136.41;5092062;28;20043;-77
2023/08/14 12:07:47;;;;;;;4.55;2.33;;;;;;;30.38;44.59;101122.28;5092276;28;20050;-76
2023/08/14 12:13:35;;;;;;;6.88;2.40;;;;;;;30.02;48.25;101117.41;5091778;28;20347;-79
2023/08/14 12:19:22;;;;;;;5.03;2.40;;;;;;;29.10;53.03;101098.13;5092039;28;20071;-76
2023/08/14 12:25:09;;;;;;;5.78;2.55;;;;;;;29.41;50.13;101106.03;5091360;28;20043;-76
2023/08/14 12:30:56;;;;;;;5.13;2.20;;;;;;;29.11;50.48;101094.22;5092175;28;20090;-78
2023/08/14 12:36:42;;;;;;;5.10;2.38;;;;;;;29.17;53.10;101096.44;5091837;28;20285;-76
2023/08/14 12:42:29;;;;;;;7.63;2.60;;;;;;;28.82;49.03;101090.28;5091548;28;20123;-78
2023/08/14 12:48:16;;;;;;;7.50;2.40;;;;;;;32.79;42.52;101092.84;5091686;28;20323;-75
2023/08/14 12:54:03;;;;;;;5.43;2.67;;;;;;;31.12;44.70;101086.09;5091416;28;20282;-76
2023/08/14 12:59:50;;;;;;;6.25;2.42;;;;;;;32.32;40.24;101059.59;5091601;28;20055;-78
2023/08/14 13:05:37;;;;;;;5.82;2.13;;;;;;;32.13;43.23;101060.25;5091230;28;20281;-77
2023/08/14 13:11:25;;;;;;;4.78;2.28;;;;;;;30.64;42.23;101064.81;5091479;28;20032;-78
2023/08/14 13:17:12;;;;;;;5.32;2.00;;;;;;;28.47;49.61;101051.09;5091717;28;20039;-75
2023/08/14 13:22:59;;;;;;;7.75;2.50;;;;;;;28.52;51.52;101039.09;5090912;28;20685;-77
2023/08/14 13:28:46;;;;;;;6.18;2.45;;;;;;;28.91;47.86;101022.25;5090324;28;20276;-76
2023/08/14 13:34:33;;;;;;;7.05;2.30;;;;;;;29.73;52.24;101008.81;5091178;28;20550;-75
2023/08/14 13:40:20;;;;;;;9.07;2.90;;;;;;;29.69;48.02;101005.13;5090865;28;20070;-76
2023/08/14 13:46:07;;;;;;;6.78;2.70;;;;;;;29.31;48.06;100994.25;5090678;28;20089;-77
2023/08/14 13:51:54;;;;;;;5.95;2.45;;;;;;;28.88;48.68;100981.59;5090450;28;20339;-76
2023/08/14 13:57:41;;;;;;;6.53;2.70;;;;;;;28.04;55.44;100985.97;5090924;28;20273;-74
2023/08/14 14:03:28;;;;;;;5.80;2.90;;;;;;;28.01;52.84;100978.41;5092408;28;20059;-74
2023/08/14 14:09:15;;;;;;;6.63;2.90;;;;;;;27.78;52.02;100990.75;5094277;28;20105;-76
2023/08/14 14:15:02;;;;;;;7.85;2.90;;;;;;;27.30;53.93;100980.75;5093882;28;20587;-75
2023/08/14 14:20:49;;;;;;;4.63;2.53;;;;;;;27.14;62.55;100971.34;5093292;28;20039;-76
2023/08/14 14:26:36;;;;;;;5.40;2.03;;;;;;;27.47;56.83;100971.69;5093935;28;20047;-75
2023/08/14 14:32:23;;;;;;;6.93;2.50;;;;;;;27.61;56.92;100960.53;5094205;28;20429;-77
2023/08/14 14:38:10;;;;;;;5.28;2.65;;;;;;;27.43;51.89;100963.28;5093743;28;20638;-76
2023/08/14 14:43:57;;;;;;;6.18;2.65;;;;;;;27.45;54.17;100960.19;5093416;28;20089;-74
2023/08/14 14:49:44;;;;;;;7.75;2.65;;;;;;;27.47;57.61;100946.97;5093543;28;20042;-76
2023/08/14 14:55:31;;;;;;;5.85;2.35;;;;;;;27.54;59.46;100940.97;5093233;28;20090;-74
2023/08/14 15:05:00;;;;;;;6.00;2.72;;;;;;;27.75;56.81;100939.16;5093181;28;20112;-77
2023/08/14 15:10:47;;;;;;;7.20;2.80;;;;;;;27.73;59.97;100938.69;5093166;28;20038;-75
2023/08/14 15:16:34;;;;;;;4.75;2.58;;;;;;;27.64;56.89;100932.41;5093346;28;20031;-76
2023/08/14 15:22:21;;;;;;;6.45;2.67;;;;;;;27.70;58.63;100933.84;5093072;28;20085;-78
2023/08/14 15:28:08;;;;;;;4.85;2.25;;;;;;;27.96;57.73;100931.84;5092767;28;20299;-80
2023/08/14 15:33:55;;;;;;;10.07;2.95;;;;;;;28.15;60.40;100952.66;5092409;28;20106;-76
2023/08/14 15:39:42;;;;;;;6.38;2.75;;;;;;;28.02;63.25;100966.25;5092629;28;20608;-77
2023/08/14 15:45:28;;;;;;;6.07;2.10;;;;;;;28.02;59.11;100960.75;5092811;28;20403;-82
2023/08/14 15:51:18;;;;;;;5.97;2.33;;;;;;;28.09;57.82;100965.78;5092275;28;20181;-81
2023/08/14 15:57:05;;;;;;;5.25;2.42;;;;;;;27.62;66.55;100967.66;5092704;28;20035;-75
2023/08/14 16:02:52;;;;;;;5.93;2.42;;;;;;;27.50;66.01;100967.50;5092563;28;20046;-79
2023/08/14 16:08:39;;;;;;;9.23;2.70;;;;;;;27.81;60.85;100972.81;5092279;28;20085;-82
2023/08/14 16:14:26;;;;;;;6.00;2.60;;;;;;;27.75;61.59;100975.69;5092054;28;20069;-80
2023/08/14 16:20:12;;;;;;;7.63;2.97;;;;;;;27.76;61.68;100974.59;5091805;28;20043;-80
2023/08/14 16:25:59;;;;;;;3.75;2.25;;;;;;;27.83;62.82;100976.03;5091203;28;20055;-78
2023/08/14 16:31:47;;;;;;;6.07;2.33;;;;;;;27.91;57.58;100970.50;5091640;28;20046;-78
2023/08/14 16:37:36;;;;;;;6.70;2.40;;;;;;;27.97;56.63;100973.88;5091024;28;20470;-76
2023/08/14 16:43:23;;;;;;;6.63;2.63;;;;;;;27.87;60.34;100960.50;5092144;28;20035;-79
2023/08/14 16:49:09;;;;;;;6.57;2.58;;;;;;;27.79;60.21;100969.59;5091988;28;20509;-78
2023/08/14 16:54:57;;;;;;;6.78;2.80;;;;;;;27.63;62.12;100961.03;5091416;28;20069;-77
2023/08/14 17:00:44;;;;;;;12.02;3.72;;;;;;;27.56;61.88;100960.69;5091804;28;20043;-79
2023/08/14 17:06:31;;;;;;;13.15;5.18;;;;;;;27.36;66.46;100951.97;5091911;28;20404;-77
2023/08/14 17:12:18;;;;;;;7.85;3.13;;;;;;;27.25;68.59;100939.72;5091104;28;20047;-77
2023/08/14 17:18:04;;;;;;;6.07;2.45;;;;;;;27.28;66.37;100950.06;5091337;28;20277;-80
2023/08/14 17:23:51;;;;;;;5.07;2.40;;;;;;;27.14;70.16;100944.72;5091184;28;20741;-78
2023/08/14 17:29:38;;;;;;;8.13;3.08;;;;;;;27.09;70.01;100952.31;5091604;28;20035;-78
2023/08/14 17:35:25;;;;;;;5.75;2.88;;;;;;;27.09;72.43;100953.09;5090990;28;20043;-78
2023/08/14 17:41:12;;;;;;;5.07;2.70;;;;;;;26.90;81.68;100949.03;5094486;28;20424;-78
2023/08/14 17:46:59;;;;;;;5.38;2.67;;;;;;;26.81;75.95;100952.56;5094375;28;20339;-80
2023/08/14 17:52:46;;;;;;;7.68;2.70;;;;;;;26.39;86.57;100934.88;5094454;28;20085;-77
2023/08/14 17:58:33;;;;;;;7.82;2.83;;;;;;;26.13;95.60;100940.25;5094492;28;20430;-76
2023/08/14 18:04:20;;;;;;;9.18;2.53;;;;;;;25.88;92.42;100927.22;5094291;28;20459;-78
2023/08/14 18:10:07;;;;;;;6.78;2.80;;;;;;;25.80;95.01;100926.06;5093911;28;20093;-78
2023/08/14 18:15:58;;;;;;;6.18;3.05;;;;;;;25.29;98.65;100934.69;5094043;28;20518;-77
2023/08/14 18:21:44;;;;;;;7.05;2.67;;;;;;;25.01;100.00;100945.75;5094223;28;20400;-76
2023/08/14 18:27:31;;;;;;;7.78;2.85;;;;;;;24.86;100.00;100946.03;5093602;28;20047;-75
2023/08/14 18:33:18;;;;;;;7.40;2.60;;;;;;;24.55;100.00;100945.06;5093594;28;20351;-74
2023/08/14 18:39:06;;;;;;;6.78;3.05;;;;;;;24.22;100.00;100945.16;5093939;28;20426;-74
2023/08/14 18:44:53;;;;;;;7.25;3.20;;;;;;;23.98;100.00;100949.97;5093809;28;20122;-74
2023/08/14 18:50:39;;;;;;;5.50;3.08;;;;;;;23.73;100.00;100952.06;5093306;28;20277;-74
2023/08/14 18:56:26;;;;;;;9.57;3.33;;;;;;;23.08;100.00;100962.03;5093432;28;20417;-75
2023/08/14 19:02:13;;;;;;;9.25;3.10;;;;;;;22.75;100.00;100967.38;5093342;28;20039;-74
2023/08/14 19:08:00;;;;;;;10.70;3.58;;;;;;;22.63;100.00;100968.91;5093365;28;20514;-74
2023/08/14 19:13:47;;;;;;;5.93;2.92;;;;;;;22.67;100.00;100976.19;5093038;28;20355;-74
2023/08/14 19:19:35;;;;;;;7.95;3.08;;;;;;;22.47;100.00;100966.34;5092966;28;20089;-77
2023/08/14 19:25:22;;;;;;;6.90;3.00;;;;;;;22.18;100.00;100974.56;5093164;28;20074;-75
2023/08/14 19:31:09;;;;;;;7.68;2.97;;;;;;;22.12;100.00;100980.34;5092684;28;20285;-74
2023/08/14 19:36:56;;;;;;;6.45;2.90;;;;;;;21.80;100.00;100989.06;5093094;28;20331;-75
2023/08/14 19:42:43;;;;;;;9.20;3.28;;;;;;;21.69;100.00;101003.88;5092649;28;20553;-75
2023/08/14 19:48:30;;;;;;;8.32;3.33;;;;;;;21.46;100.00;100999.94;5092482;28;20047;-73
2023/08/14 19:54:16;;;;;;;6.68;3.20;;;;;;;21.27;100.00;101000.59;5092512;28;20278;-75
2023/08/14 20:00:07;;;;;;;8.57;3.45;;;;;;;20.99;100.00;100998.53;5091213;28;20050;-75
2023/08/14 20:05:54;;;;;;;6.43;3.47;;;;;;;21.08;100.00;101002.28;5092521;28;20165;-76
2023/08/14 20:11:40;;;;;;;8.15;3.22;;;;;;;21.16;100.00;101007.16;5092747;28;20047;-74
2023/08/14 20:17:27;;;;;;;5.70;3.40;;;;;;;21.14;100.00;100990.31;5092121;28;20089;-75
2023/08/14 20:23:16;;;;;;;6.97;3.30;;;;;;;21.32;100.00;100962.47;5091825;28;20358;-74
2023/08/14 20:29:03;;;;;;;6.00;3.20;;;;;;;21.33;100.00;100963.28;5092168;28;20453;-73
2023/08/14 20:34:49;;;;;;;6.57;3.58;;;;;;;21.31;100.00;100970.91;5091781;28;20070;-73
2023/08/14 20:40:37;;;;;;;9.38;3.40;;;;;;;21.28;100.00;100977.75;5091167;28;20816;-77
2023/08/14 20:46:24;;;;;;;7.75;3.33;;;;;;;21.16;100.00;100996.28;5092108;28;20384;-79
2023/08/14 20:52:11;;;;;;;7.63;4.10;;;;;;;20.62;100.00;100990.81;5092017;28;20050;-75
2023/08/14 20:57:58;;;;;;;6.55;3.70;;;;;;;20.20;100.00;100991.16;5092104;28;20345;-80
2023/08/14 21:00:26;;;;;;;9.65;4.57;;;;;;;20.16;100.00;100995.50;5072990;28;20408;-80
2023/08/14 21:06:13;;;;;;;9.52;4.05;;;;;;;20.02;100.00;100981.69;5092071;28;20040;-76
2023/08/14 21:12:00;;;;;;;8.20;3.97;;;;;;;20.09;100.00;100980.31;5093021;28;20056;-78
2023/08/14 21:18:07;;;;;;;7.38;3.92;;;;;;;19.86;100.00;100974.66;5095239;28;20436;-81
2023/08/14 21:23:54;;;;;;;8.45;3.80;;;;;;;20.05;100.00;100989.28;5094749;28;20151;-78
2023/08/14 21:29:41;;;;;;;7.50;4.25;;;;;;;20.00;100.00;100967.59;5095675;28;20073;-80
2023/08/14 21:35:28;;;;;;;9.20;4.03;;;;;;;20.02;100.00;100973.56;5095124;28;20284;-80
2023/08/14 21:41:15;;;;;;;12.38;4.65;;;;;;;20.18;100.00;100979.75;5095177;28;20308;-80
2023/08/14 21:47:02;;;;;;;9.50;4.13;;;;;;;20.32;100.00;100987.06;5095083;28;20568;-81
2023/08/14 21:52:49;;;;;;;10.20;4.60;;;;;;;20.31;100.00;100985.44;5095141;28;20059;-81
2023/08/14 21:58:36;;;;;;;6.45;3.83;;;;;;;20.14;100.00;100989.53;5094857;28;20373;-78
2023/08/14 22:07:46;;;;;;;9.85;4.40;;;;;;;19.80;100.00;100979.28;5094696;28;20138;-81
2023/08/14 22:13:33;;;;;;;8.15;4.68;;;;;;;19.84;100.00;100985.78;5094355;28;20101;-78
2023/08/14 22:19:20;;;;;;;9.70;5.07;;;;;;;19.88;100.00;100967.84;5094604;28;20375;-80
2023/08/14 22:25:08;;;;;;;11.15;4.97;;;;;;;19.85;100.00;100964.88;5093515;28;20280;-81
2023/08/14 22:30:55;;;;;;;8.13;4.53;;;;;;;19.86;100.00;100964.59;5094315;28;20047;-79
2023/08/14 22:33:20;;;;;;;13.07;5.47;;;;;;;19.94;100.00;100974.09;5093107;28;20036;-77
2023/08/14 22:39:07;;;;;;;8.20;4.63;;;;;;;19.96;100.00;100971.94;5094193;28;20323;-78
2023/08/14 22:44:54;;;;;;;8.02;4.45;;;;;;;19.99;100.00;100966.78;5094397;28;20043;-78
2023/08/14 22:50:42;;;;;;;9.85;4.85;;;;;;;20.01;100.00;100972.75;5093869;28;20657;-79
2023/08/14 22:56:29;;;;;;;10.98;4.95;;;;;;;19.98;100.00;100976.00;5094222;28;20538;-79
2023/08/14 23:02:16;;;;;;;8.82;4.40;;;;;;;19.96;100.00;100951.03;5093753;28;20281;-79
2023/08/14 23:08:03;;;;;;;8.15;4.45;;;;;;;20.07;100.00;100974.34;5094084;28;20042;-80
2023/08/14 23:13:50;;;;;;;11.95;4.82;;;;;;;20.10;100.00;100971.09;5093841;28;20118;-80
2023/08/14 23:19:37;;;;;;;10.90;5.22;;;;;;;20.32;100.00;100991.69;5093988;28;20173;-79
2023/08/14 23:25:24;;;;;;;9.43;5.18;;;;;;;20.33;100.00;100999.56;5093378;28;20395;-79
2023/08/14 23:31:12;;;;;;;8.27;4.40;;;;;;;20.35;100.00;101002.00;5093217;28;20299;-77
2023/08/14 23:36:59;;;;;;;9.50;5.40;;;;;;;20.34;100.00;101006.63;5093946;28;20039;-78
2023/08/14 23:42:46;;;;;;;8.98;5.47;;;;;;;20.14;100.00;101001.22;5093392;28;20084;-79
2023/08/14 23:48:33;;;;;;;11.65;5.15;;;;;;;20.07;100.00;100984.41;5093335;28;20055;-79
2023/08/14 23:54:21;;;;;;;11.45;5.22;;;;;;;20.15;100.00;100980.31;5091964;28;20403;-79
